Fallston, North Carolina
Current Conditions -  °F | °C
As of 6:35 PM on Wednesday 22 Oct 2014 (Local Time) from KEHO Reporting Station
Clear Clear  
Wind Chill: 56°   Ceiling: Unl
Heat Index: 56°   Visibility: 10mi
Dew Point: 39°   Wind: 8mph
Humidity: 52%   Direction: 350°N
Pressure: 30.09"   Gusts: NA
Location:  35.43°N, 81.5°W
Report Text: KEHO 222235Z AUTO 35007KT 10SM CLR 14/04 A3009 RMK AO2 T01360039
Loading
Personal Weather Stations






























Interactive Weather Map
Tropical Storm Tracking
New forecast layout! Learn more

10-Day Weather Forecast

Advertisements
Track Severe Weather on mobile